createdAt,value
2023-02-09T00:01:30.945Z,17.00
2023-02-09T00:03:59.134Z,17.05
2023-02-09T00:06:27.200Z,16.17
2023-02-09T00:08:54.294Z,13.80
2023-02-09T00:11:43.158Z,15.03
2023-02-09T00:14:13.984Z,14.85
2023-02-09T00:16:44.760Z,15.05
2023-02-09T00:19:12.824Z,14.85
2023-02-09T00:21:40.483Z,14.85
2023-02-09T00:24:10.729Z,14.40
2023-02-09T00:26:38.098Z,15.35
2023-02-09T00:29:05.837Z,15.85
2023-02-09T00:31:33.475Z,16.92
2023-02-09T00:34:01.000Z,16.10
2023-02-09T00:36:28.238Z,16.27
2023-02-09T00:38:55.284Z,15.98
2023-02-09T00:41:42.272Z,16.35
2023-02-09T00:44:11.070Z,13.90
2023-02-09T00:46:38.102Z,15.03
2023-02-09T00:49:05.592Z,15.32
2023-02-09T00:51:32.860Z,14.82
2023-02-09T00:53:59.826Z,14.38
2023-02-09T00:56:26.773Z,16.17
2023-02-09T00:58:53.898Z,16.20
2023-02-09T01:01:20.868Z,14.77
2023-02-09T01:03:47.933Z,14.95
2023-02-09T01:06:15.057Z,14.50
2023-02-09T01:08:42.040Z,14.47
2023-02-09T01:11:14.666Z,16.23
2023-02-09T01:13:43.268Z,14.85
2023-02-09T01:16:13.882Z,14.75
2023-02-09T01:18:42.279Z,15.75
2023-02-09T01:21:14.854Z,17.07
2023-02-09T01:23:42.374Z,17.87
2023-02-09T01:26:12.132Z,17.48
2023-02-09T01:28:39.917Z,16.23
2023-02-09T01:31:17.559Z,17.17
2023-02-09T01:33:44.592Z,16.40
2023-02-09T01:36:11.504Z,16.25
2023-02-09T01:38:38.450Z,16.50
2023-02-09T01:41:05.641Z,16.30
2023-02-09T01:43:55.848Z,17.20
2023-02-09T01:46:25.480Z,17.02
2023-02-09T01:48:59.175Z,18.33
2023-02-09T01:51:27.273Z,17.10
2023-02-09T01:53:54.522Z,17.77
2023-02-09T01:56:28.485Z,15.73
2023-02-09T01:58:56.018Z,15.77
2023-02-09T02:01:23.777Z,15.07
2023-02-09T02:03:51.909Z,14.68
2023-02-09T02:06:19.786Z,14.57
2023-02-09T02:08:53.658Z,15.40
2023-02-09T02:11:22.331Z,15.55
2023-02-09T02:13:49.921Z,15.82
2023-02-09T02:16:42.169Z,14.77
2023-02-09T02:19:21.094Z,14.52
2023-02-09T02:22:16.193Z,15.52
2023-02-09T02:24:52.029Z,16.73
2023-02-09T02:27:33.975Z,16.03
2023-02-09T02:30:17.734Z,15.55
2023-02-09T02:32:51.123Z,14.43
2023-02-09T02:35:17.985Z,15.70
2023-02-09T02:37:48.081Z,15.73
2023-02-09T02:40:30.413Z,16.73
2023-02-09T02:43:22.183Z,16.80
2023-02-09T02:46:11.152Z,16.95
2023-02-09T02:48:44.244Z,15.05
2023-02-09T02:51:28.518Z,14.95
2023-02-09T02:54:01.994Z,14.48
2023-02-09T02:56:40.023Z,15.00
2023-02-09T02:59:12.719Z,14.77
2023-02-09T03:02:11.726Z,14.98
2023-02-09T03:04:40.707Z,14.38
2023-02-09T03:07:08.504Z,15.00
2023-02-09T03:09:35.648Z,14.70
2023-02-09T03:12:16.476Z,14.10
2023-02-09T03:14:59.493Z,15.10
2023-02-09T03:17:59.024Z,13.93
2023-02-09T03:20:28.205Z,14.67
2023-02-09T03:23:00.086Z,14.55
2023-02-09T03:25:32.020Z,14.93
2023-02-09T03:28:14.688Z,14.77
2023-02-09T03:30:44.961Z,14.15
2023-02-09T03:33:21.115Z,15.70
2023-02-09T03:35:54.925Z,16.67
2023-02-09T03:38:21.870Z,16.50
2023-02-09T03:40:48.813Z,17.30
2023-02-09T03:43:16.004Z,17.37
2023-02-09T03:45:42.912Z,16.12
2023-02-09T03:48:09.909Z,16.12
2023-02-09T03:50:37.971Z,16.50
2023-02-09T03:53:08.190Z,15.60
2023-02-09T03:55:35.870Z,14.75
2023-02-09T03:58:02.874Z,14.40
2023-02-09T04:00:31.602Z,14.38
2023-02-09T04:02:59.854Z,14.20
2023-02-09T04:05:26.869Z,15.07
2023-02-09T04:07:53.856Z,13.93
2023-02-09T04:10:22.963Z,13.47
2023-02-09T04:12:53.162Z,13.55
2023-02-09T04:15:20.128Z,14.27
2023-02-09T04:17:47.909Z,14.13
2023-02-09T04:20:17.630Z,13.57
2023-02-09T04:22:45.780Z,13.48
2023-02-09T04:25:12.671Z,15.32
2023-02-09T04:27:39.708Z,15.23
2023-02-09T04:30:11.059Z,13.35
2023-02-09T04:32:39.131Z,13.40
2023-02-09T04:35:06.547Z,15.20
2023-02-09T04:37:33.452Z,17.15
2023-02-09T04:40:00.875Z,16.35
2023-02-09T04:42:27.857Z,16.33
2023-02-09T04:44:54.743Z,16.50
2023-02-09T04:47:21.594Z,15.70
2023-02-09T04:49:48.622Z,12.77
2023-02-09T04:52:16.420Z,13.20
2023-02-09T04:54:43.285Z,12.43
2023-02-09T04:57:28.702Z,13.32
2023-02-09T04:59:55.757Z,14.45
2023-02-09T05:02:22.741Z,15.23
2023-02-09T05:04:49.889Z,15.48
2023-02-09T05:07:16.745Z,14.65
2023-02-09T05:09:44.640Z,15.13
2023-02-09T05:12:11.935Z,13.73
2023-02-09T05:14:38.996Z,15.27
2023-02-09T05:17:05.876Z,15.45
2023-02-09T05:19:32.860Z,15.33
2023-02-09T05:21:59.830Z,14.25
2023-02-09T05:24:26.788Z,14.30
2023-02-09T05:26:53.669Z,12.85
2023-02-09T05:29:22.224Z,14.67
2023-02-09T05:31:49.261Z,12.95
2023-02-09T05:34:16.263Z,13.82
2023-02-09T05:36:43.299Z,13.88
2023-02-09T05:39:10.260Z,14.07
2023-02-09T05:41:55.928Z,11.55
2023-02-09T05:44:22.997Z,11.45
2023-02-09T05:46:49.950Z,11.40
2023-02-09T05:49:16.870Z,11.03
2023-02-09T05:51:43.796Z,10.80
2023-02-09T05:54:10.843Z,12.37
2023-02-09T05:56:38.167Z,13.52
2023-02-09T05:59:05.253Z,12.77
2023-02-09T06:01:32.675Z,11.98
2023-02-09T06:03:59.522Z,11.45
2023-02-09T06:06:26.356Z,10.68
2023-02-09T06:08:53.298Z,10.60
2023-02-09T06:11:20.676Z,10.18
2023-02-09T06:13:47.653Z,10.43
2023-02-09T06:16:14.529Z,14.10
2023-02-09T06:18:41.446Z,14.30
2023-02-09T06:21:08.491Z,13.43
2023-02-09T06:23:35.516Z,11.73
2023-02-09T06:26:06.810Z,12.48
2023-02-09T06:28:33.839Z,11.75
2023-02-09T06:31:01.203Z,15.25
2023-02-09T06:33:28.544Z,15.43
2023-02-09T06:35:55.489Z,16.08
2023-02-09T06:38:22.504Z,15.00
2023-02-09T06:40:50.084Z,14.02
2023-02-09T06:43:17.669Z,14.20
2023-02-09T06:45:44.631Z,19.37
2023-02-09T06:48:11.517Z,14.07
2023-02-09T06:50:39.168Z,18.33
2023-02-09T06:53:06.923Z,23.02
2023-02-09T06:55:34.491Z,18.83
2023-02-09T06:58:02.357Z,16.27
2023-02-09T07:00:31.722Z,14.52
2023-02-09T07:02:59.626Z,14.18
2023-02-09T07:05:27.044Z,13.98
2023-02-09T07:07:56.476Z,18.10
2023-02-09T07:10:23.529Z,18.00
2023-02-09T07:12:50.672Z,15.18
2023-02-09T07:15:17.837Z,15.80
2023-02-09T07:17:45.079Z,15.95
2023-02-09T07:20:12.517Z,17.23
2023-02-09T07:22:40.997Z,18.42
2023-02-09T07:25:08.305Z,18.60
2023-02-09T07:27:35.387Z,17.92
2023-02-09T07:30:02.746Z,16.87
2023-02-09T07:32:34.088Z,15.02
2023-02-09T07:35:01.167Z,13.13
2023-02-09T07:37:28.081Z,12.20
2023-02-09T07:39:56.649Z,13.05
2023-02-09T07:42:24.869Z,11.77
2023-02-09T07:44:51.775Z,11.50
2023-02-09T07:47:18.749Z,10.43
2023-02-09T07:49:46.004Z,12.37
2023-02-09T07:52:12.900Z,13.18
2023-02-09T07:54:39.799Z,13.27
2023-02-09T07:57:06.682Z,13.23
2023-02-09T07:59:34.197Z,11.85
2023-02-09T08:02:01.293Z,11.85
2023-02-09T08:04:28.161Z,11.25
2023-02-09T08:06:55.286Z,10.47
2023-02-09T08:09:22.305Z,11.15
2023-02-09T08:12:08.277Z,10.73
2023-02-09T08:14:42.960Z,10.82
2023-02-09T08:17:20.456Z,10.75
2023-02-09T08:19:56.569Z,11.63
2023-02-09T08:22:25.090Z,11.15
2023-02-09T08:24:52.631Z,12.23
2023-02-09T08:27:19.700Z,12.95
2023-02-09T08:30:07.239Z,14.70
2023-02-09T08:32:54.082Z,13.43
2023-02-09T08:35:21.062Z,14.32
2023-02-09T08:37:48.092Z,15.63
2023-02-09T08:40:15.245Z,15.77
2023-02-09T08:42:42.150Z,16.60
2023-02-09T08:45:09.876Z,16.50
2023-02-09T08:47:36.840Z,18.10
2023-02-09T08:50:03.900Z,18.45
2023-02-09T08:52:31.286Z,17.35
2023-02-09T08:54:58.141Z,14.63
2023-02-09T08:57:38.193Z,13.60
2023-02-09T09:00:10.570Z,12.98
2023-02-09T09:02:37.562Z,12.57
2023-02-09T09:05:04.695Z,12.13
2023-02-09T09:07:31.598Z,10.15
2023-02-09T09:09:58.718Z,10.83
2023-02-09T09:12:25.697Z,10.30
2023-02-09T09:14:52.657Z,10.48
2023-02-09T09:17:19.585Z,9.65
2023-02-09T09:19:46.637Z,8.80
2023-02-09T09:22:13.532Z,7.90
2023-02-09T09:24:43.216Z,7.50
2023-02-09T09:27:10.816Z,8.30
2023-02-09T09:29:40.092Z,7.37
2023-02-09T09:32:08.222Z,7.80
2023-02-09T09:34:35.142Z,7.53
2023-02-09T09:37:01.982Z,7.97
2023-02-09T09:39:28.904Z,7.70
2023-02-09T09:41:59.816Z,8.07
2023-02-09T09:44:34.884Z,8.18
2023-02-09T09:47:08.762Z,8.13
2023-02-09T09:49:37.291Z,8.15
2023-02-09T09:52:15.769Z,8.75
2023-02-09T09:54:44.071Z,8.15
2023-02-09T09:57:24.472Z,7.72
2023-02-09T09:59:53.053Z,7.27
2023-02-09T10:02:30.267Z,7.80
2023-02-09T10:05:10.436Z,7.43
2023-02-09T10:07:38.859Z,8.50
2023-02-09T10:10:21.279Z,7.25
2023-02-09T10:12:51.152Z,7.63
2023-02-09T10:15:19.319Z,7.80
2023-02-09T10:17:46.167Z,8.57
2023-02-09T10:20:13.539Z,8.05
2023-02-09T10:22:44.836Z,8.00
2023-02-09T10:25:39.105Z,10.00
2023-02-09T10:28:06.630Z,9.57
2023-02-09T10:30:34.136Z,8.77
2023-02-09T10:33:02.423Z,8.68
2023-02-09T10:35:36.522Z,9.05
2023-02-09T10:38:04.179Z,8.77
2023-02-09T10:40:33.799Z,9.13
2023-02-09T10:43:10.323Z,9.85
2023-02-09T10:45:44.620Z,9.75
2023-02-09T10:48:11.660Z,8.90
2023-02-09T10:50:50.812Z,9.53
2023-02-09T10:53:33.036Z,9.13
2023-02-09T10:56:40.493Z,8.68
2023-02-09T10:59:25.339Z,8.88
2023-02-09T11:02:02.275Z,10.27
2023-02-09T11:04:39.998Z,8.63
2023-02-09T11:07:13.513Z,8.93
2023-02-09T11:09:48.504Z,8.02
2023-02-09T11:12:15.476Z,8.75
2023-02-09T11:14:43.250Z,9.50
2023-02-09T11:17:36.546Z,8.77
2023-02-09T11:20:12.133Z,8.02
2023-02-09T11:23:23.295Z,8.57
2023-02-09T11:25:53.084Z,9.43
2023-02-09T11:28:55.148Z,8.93
2023-02-09T11:32:03.966Z,9.03
2023-02-09T11:34:37.959Z,8.35
2023-02-09T11:37:16.455Z,9.10
2023-02-09T11:39:51.401Z,9.18
2023-02-09T11:42:45.145Z,10.02
2023-02-09T11:45:30.896Z,9.10
2023-02-09T11:47:58.356Z,8.82
2023-02-09T11:50:39.250Z,8.27
2023-02-09T11:53:16.190Z,8.10
2023-02-09T11:55:49.768Z,7.85
2023-02-09T11:58:47.630Z,8.03
2023-02-09T12:01:44.601Z,7.15
2023-02-09T12:04:26.444Z,7.25
2023-02-09T12:07:00.458Z,6.90
2023-02-09T12:09:55.751Z,6.30
2023-02-09T12:12:29.194Z,5.27
2023-02-09T12:15:05.629Z,6.93
2023-02-09T12:17:38.124Z,7.00
2023-02-09T12:20:19.997Z,7.00
2023-02-09T12:22:57.894Z,9.35
2023-02-09T12:26:00.138Z,7.13
2023-02-09T12:28:27.298Z,7.90
2023-02-09T12:30:58.988Z,6.70
2023-02-09T12:33:25.827Z,7.82
2023-02-09T12:36:08.472Z,8.85
2023-02-09T12:38:56.844Z,9.13
2023-02-09T12:41:30.209Z,8.93
2023-02-09T12:44:06.034Z,9.70
2023-02-09T12:46:34.095Z,11.40
2023-02-09T12:49:00.965Z,8.90
2023-02-09T12:51:39.737Z,10.23
2023-02-09T12:54:31.020Z,7.70
2023-02-09T12:57:16.322Z,8.40
2023-02-09T12:59:52.727Z,7.50
2023-02-09T13:02:37.648Z,19.67
2023-02-09T13:05:23.403Z,8.43
2023-02-09T13:08:15.972Z,10.88
2023-02-09T13:11:06.907Z,10.23
2023-02-09T13:13:53.727Z,7.68
2023-02-09T13:16:30.983Z,7.70
2023-02-09T13:19:39.189Z,7.73
2023-02-09T13:22:29.105Z,8.00
2023-02-09T13:25:00.849Z,7.28
2023-02-09T13:27:29.723Z,7.78
2023-02-09T13:29:58.681Z,7.80
2023-02-09T13:32:47.875Z,8.30
2023-02-09T13:35:29.387Z,7.05
2023-02-09T13:37:58.947Z,8.27
2023-02-09T13:40:31.530Z,8.15
2023-02-09T13:43:17.312Z,7.80
2023-02-09T13:46:02.876Z,7.80
2023-02-09T13:48:39.424Z,8.10
2023-02-09T13:51:20.624Z,8.15
2023-02-09T13:54:02.424Z,8.18
2023-02-09T13:56:31.962Z,7.12
2023-02-09T13:59:00.448Z,7.97
2023-02-09T14:01:33.811Z,7.65
2023-02-09T14:04:15.255Z,7.68
2023-02-09T14:07:05.678Z,8.85
2023-02-09T14:09:44.668Z,8.77
2023-02-09T14:12:55.551Z,10.57
2023-02-09T14:15:53.095Z,6.95
2023-02-09T14:18:44.261Z,8.18
2023-02-09T14:21:11.433Z,9.18
2023-02-09T14:23:39.636Z,7.00
2023-02-09T14:26:27.597Z,9.83
2023-02-09T14:29:04.309Z,17.80
2023-02-09T14:31:34.626Z,7.20
2023-02-09T14:34:02.261Z,16.02
2023-02-09T14:36:36.246Z,10.13
2023-02-09T14:39:13.122Z,8.13
2023-02-09T14:41:40.217Z,7.03
2023-02-09T14:44:07.010Z,5.60
2023-02-09T14:46:48.551Z,7.00
2023-02-09T14:49:16.325Z,7.10
2023-02-09T14:51:44.945Z,8.07
2023-02-09T14:54:28.122Z,5.50
2023-02-09T14:56:58.705Z,9.45
2023-02-09T14:59:27.576Z,7.97
2023-02-09T15:01:54.977Z,14.27
2023-02-09T15:04:22.555Z,6.67
2023-02-09T15:07:03.796Z,31.15
2023-02-09T15:09:36.936Z,9.85
2023-02-09T15:12:06.269Z,20.58
2023-02-09T15:14:38.098Z,9.30
2023-02-09T15:17:17.669Z,11.23
2023-02-09T15:19:45.842Z,12.77
2023-02-09T15:22:15.189Z,8.48
2023-02-09T15:24:44.163Z,6.70
2023-02-09T15:27:24.278Z,8.02
2023-02-09T15:29:51.497Z,8.03
2023-02-09T15:32:20.552Z,7.60
2023-02-09T15:34:47.993Z,7.87
2023-02-09T15:37:37.053Z,8.32
2023-02-09T15:40:16.116Z,8.30
2023-02-09T15:43:02.014Z,7.60
2023-02-09T15:45:48.860Z,7.25
2023-02-09T15:48:16.159Z,7.37
2023-02-09T15:50:45.994Z,6.87
2023-02-09T15:53:18.583Z,8.25
2023-02-09T15:55:46.893Z,9.50
2023-02-09T15:58:22.384Z,10.95
2023-02-09T16:00:49.431Z,11.00
2023-02-09T16:03:19.577Z,10.80
2023-02-09T16:05:53.464Z,11.00
2023-02-09T16:08:26.719Z,10.77
2023-02-09T16:10:54.617Z,11.38
2023-02-09T16:13:22.064Z,13.05
2023-02-09T16:15:49.598Z,18.45
2023-02-09T16:18:16.699Z,16.25
2023-02-09T16:20:47.459Z,17.03
2023-02-09T16:23:21.108Z,17.15
2023-02-09T16:25:54.226Z,15.93
2023-02-09T16:28:22.224Z,18.62
2023-02-09T16:30:54.012Z,19.37
2023-02-09T16:33:25.800Z,19.13
2023-02-09T16:36:02.931Z,19.55
2023-02-09T16:38:31.534Z,19.90
2023-02-09T16:40:58.581Z,20.10
2023-02-09T16:43:27.085Z,18.00
2023-02-09T16:46:03.425Z,18.63
2023-02-09T16:48:34.784Z,21.70
2023-02-09T16:51:03.008Z,21.02
2023-02-09T16:53:38.635Z,20.12
2023-02-09T16:56:10.373Z,18.60
2023-02-09T16:58:38.662Z,19.13
2023-02-09T17:01:23.019Z,17.48
2023-02-09T17:03:57.940Z,20.25
2023-02-09T17:06:28.885Z,19.52
2023-02-09T17:08:56.949Z,21.92
2023-02-09T17:11:27.196Z,22.67
2023-02-09T17:13:57.832Z,26.10
2023-02-09T17:16:37.046Z,29.42
2023-02-09T17:19:11.522Z,29.70
2023-02-09T17:21:40.611Z,27.65
2023-02-09T17:24:26.689Z,30.27
2023-02-09T17:26:54.557Z,31.30
2023-02-09T17:29:24.024Z,31.73
2023-02-09T17:31:54.044Z,27.98
2023-02-09T17:34:27.477Z,28.48
2023-02-09T17:36:56.574Z,28.03
2023-02-09T17:39:25.655Z,26.17
2023-02-09T17:41:53.449Z,28.90
2023-02-09T17:44:44.942Z,26.40
2023-02-09T17:47:17.168Z,26.35
2023-02-09T17:49:47.148Z,29.70
2023-02-09T17:52:19.757Z,30.33
2023-02-09T17:54:49.028Z,26.27
2023-02-09T17:57:18.292Z,27.37
2023-02-09T17:59:48.760Z,26.20
2023-02-09T18:02:20.101Z,25.90
2023-02-09T18:04:48.220Z,23.25
2023-02-09T18:07:20.737Z,25.10
2023-02-09T18:09:49.584Z,24.12
2023-02-09T18:12:22.099Z,24.33
2023-02-09T18:14:50.354Z,25.87
2023-02-09T18:17:20.938Z,25.90
2023-02-09T18:19:50.091Z,28.23
2023-02-09T18:22:20.371Z,23.55
2023-02-09T18:24:48.566Z,21.80
2023-02-09T18:27:20.814Z,24.93
2023-02-09T18:29:49.274Z,23.45
2023-02-09T18:32:18.458Z,23.48
2023-02-09T18:34:47.196Z,22.13
2023-02-09T18:37:16.553Z,19.45
2023-02-09T18:39:47.008Z,19.27
2023-02-09T18:42:16.811Z,20.90
2023-02-09T18:44:47.341Z,23.87
2023-02-09T18:47:16.896Z,21.95
2023-02-09T18:49:45.909Z,20.48
2023-02-09T18:52:19.377Z,19.83
2023-02-09T18:54:48.789Z,18.83
2023-02-09T18:57:19.661Z,19.83
2023-02-09T18:59:48.005Z,20.27
2023-02-09T19:02:16.526Z,19.05
2023-02-09T19:04:45.172Z,19.90
2023-02-09T19:07:15.177Z,19.23
2023-02-09T19:09:46.930Z,19.62
2023-02-09T19:12:15.369Z,19.35
2023-02-09T19:14:48.066Z,21.05
2023-02-09T19:17:18.644Z,20.80
2023-02-09T19:19:47.764Z,19.77
2023-02-09T19:22:21.629Z,20.10
2023-02-09T19:24:53.256Z,20.42
2023-02-09T19:27:24.462Z,21.05
2023-02-09T19:29:57.783Z,21.80
2023-02-09T19:32:27.825Z,20.17
2023-02-09T19:34:57.355Z,21.02
2023-02-09T19:37:25.979Z,21.02
2023-02-09T19:40:11.662Z,20.65
2023-02-09T19:42:39.580Z,20.57
2023-02-09T19:45:11.026Z,21.17
2023-02-09T19:47:39.409Z,22.83
2023-02-09T19:50:08.156Z,24.30
2023-02-09T19:52:38.883Z,25.65
2023-02-09T19:55:07.232Z,24.80
2023-02-09T19:57:36.224Z,26.48
2023-02-09T20:00:07.195Z,24.80
2023-02-09T20:02:35.949Z,24.42
2023-02-09T20:05:06.704Z,23.60
2023-02-09T20:07:34.608Z,20.90
2023-02-09T20:10:05.352Z,21.85
2023-02-09T20:12:34.794Z,23.73
2023-02-09T20:15:03.441Z,23.52
2023-02-09T20:17:31.811Z,25.90
2023-02-09T20:20:08.909Z,26.20
2023-02-09T20:22:38.525Z,24.60
2023-02-09T20:25:07.341Z,25.35
2023-02-09T20:27:35.311Z,26.52
2023-02-09T20:30:05.507Z,29.27
2023-02-09T20:32:38.300Z,26.63
2023-02-09T20:35:07.332Z,24.20
2023-02-09T20:37:35.665Z,27.45
2023-02-09T20:40:06.091Z,24.70
2023-02-09T20:42:53.119Z,25.85
2023-02-09T20:45:39.850Z,27.73
2023-02-09T20:48:08.673Z,26.23
2023-02-09T20:50:37.095Z,24.98
2023-02-09T20:53:05.561Z,22.90
2023-02-09T20:55:37.827Z,22.13
2023-02-09T20:58:06.884Z,23.80
2023-02-09T21:00:35.335Z,26.65
2023-02-09T21:03:04.341Z,23.12
2023-02-09T21:05:33.135Z,22.02
2023-02-09T21:08:04.876Z,24.92
2023-02-09T21:10:35.849Z,24.37
2023-02-09T21:13:07.927Z,24.00
2023-02-09T21:15:41.217Z,24.37
2023-02-09T21:18:09.358Z,26.37
2023-02-09T21:20:40.446Z,24.30
2023-02-09T21:23:08.072Z,24.90
2023-02-09T21:25:39.636Z,28.30
2023-02-09T21:28:07.528Z,27.45
2023-02-09T21:30:34.831Z,27.15
2023-02-09T21:33:02.354Z,26.08
2023-02-09T21:35:29.938Z,27.70
2023-02-09T21:37:57.251Z,25.45
2023-02-09T21:40:24.944Z,24.30
2023-02-09T21:42:52.537Z,24.73
2023-02-09T21:45:20.094Z,23.27
2023-02-09T21:47:47.452Z,24.83
2023-02-09T21:50:14.980Z,26.17
2023-02-09T21:52:42.332Z,26.45
2023-02-09T21:55:09.759Z,26.50
2023-02-09T21:57:38.368Z,26.00
2023-02-09T22:00:09.054Z,25.07
2023-02-09T22:02:36.390Z,26.27
2023-02-09T22:05:07.700Z,26.67
2023-02-09T22:07:36.067Z,27.75
2023-02-09T22:10:05.190Z,27.23
2023-02-09T22:12:34.286Z,27.57
2023-02-09T22:15:01.460Z,29.45
2023-02-09T22:17:28.481Z,27.92
2023-02-09T22:19:57.892Z,27.40
2023-02-09T22:22:24.691Z,26.02
2023-02-09T22:24:53.082Z,23.47
2023-02-09T22:27:22.674Z,23.45
2023-02-09T22:29:49.750Z,22.37
2023-02-09T22:32:16.959Z,22.42
2023-02-09T22:34:43.828Z,20.55
2023-02-09T22:37:10.687Z,20.00
2023-02-09T22:39:37.805Z,17.27
2023-02-09T22:42:05.148Z,16.08
2023-02-09T22:44:33.482Z,17.67
2023-02-09T22:47:00.378Z,14.30
2023-02-09T22:49:27.353Z,16.37
2023-02-09T22:51:55.003Z,13.00
2023-02-09T22:54:22.153Z,13.35
2023-02-09T22:56:49.066Z,13.48
2023-02-09T22:59:16.155Z,13.05
2023-02-09T23:01:43.622Z,13.03
2023-02-09T23:04:10.738Z,12.95
2023-02-09T23:06:37.678Z,11.82
2023-02-09T23:09:07.509Z,13.38
2023-02-09T23:11:35.171Z,12.95
2023-02-09T23:14:10.987Z,12.73
2023-02-09T23:16:40.150Z,13.45
2023-02-09T23:19:08.810Z,13.60
2023-02-09T23:21:39.209Z,16.85
2023-02-09T23:24:06.978Z,14.75
2023-02-09T23:26:34.511Z,16.77
2023-02-09T23:29:04.965Z,17.70
2023-02-09T23:31:32.390Z,15.95
2023-02-09T23:34:00.005Z,17.87
2023-02-09T23:36:29.819Z,19.50
2023-02-09T23:38:59.464Z,18.27
2023-02-09T23:41:27.390Z,19.05
2023-02-09T23:43:54.590Z,17.80
2023-02-09T23:46:25.741Z,17.92
2023-02-09T23:48:54.960Z,18.73
2023-02-09T23:51:33.725Z,17.27
2023-02-09T23:54:03.431Z,17.17
2023-02-09T23:56:36.771Z,16.98
2023-02-09T23:59:06.261Z,17.40
